sensor_id;sensor_type;location;lat;lon;timestamp;temperature;humidity
7472;DHT22;3777;48.722;8.110;2023-12-20T00:01:01;7.80;99.90
7472;DHT22;3777;48.722;8.110;2023-12-20T00:03:28;7.80;99.90
7472;DHT22;3777;48.722;8.110;2023-12-20T00:05:55;7.80;99.90
7472;DHT22;3777;48.722;8.110;2023-12-20T00:08:22;7.80;99.90
7472;DHT22;3777;48.722;8.110;2023-12-20T00:10:49;7.80;99.90
7472;DHT22;3777;48.722;8.110;2023-12-20T00:13:17;7.70;99.90
7472;DHT22;3777;48.722;8.110;2023-12-20T00:15:44;7.80;99.90
7472;DHT22;3777;48.722;8.110;2023-12-20T00:18:11;7.70;99.90
7472;DHT22;3777;48.722;8.110;2023-12-20T00:20:38;7.70;99.90
7472;DHT22;3777;48.722;8.110;2023-12-20T00:23:05;7.70;99.90
7472;DHT22;3777;48.722;8.110;2023-12-20T00:25:33;7.60;99.90
7472;DHT22;3777;48.722;8.110;2023-12-20T00:28:00;7.60;99.90
7472;DHT22;3777;48.722;8.110;2023-12-20T00:30:29;7.60;99.90
7472;DHT22;3777;48.722;8.110;2023-12-20T00:32:56;7.60;99.90
7472;DHT22;3777;48.722;8.110;2023-12-20T00:35:23;7.60;99.90
7472;DHT22;3777;48.722;8.110;2023-12-20T00:37:50;7.50;99.90
7472;DHT22;3777;48.722;8.110;2023-12-20T00:40:17;7.50;99.90
7472;DHT22;3777;48.722;8.110;2023-12-20T00:42:44;7.50;99.90
7472;DHT22;3777;48.722;8.110;2023-12-20T00:45:12;7.50;99.90
7472;DHT22;3777;48.722;8.110;2023-12-20T00:47:41;7.60;99.90
7472;DHT22;3777;48.722;8.110;2023-12-20T00:50:09;7.60;99.90
7472;DHT22;3777;48.722;8.110;2023-12-20T00:52:36;7.60;99.90
7472;DHT22;3777;48.722;8.110;2023-12-20T00:55:03;7.60;99.90
7472;DHT22;3777;48.722;8.110;2023-12-20T00:57:31;7.60;99.90
7472;DHT22;3777;48.722;8.110;2023-12-20T00:59:58;7.60;99.90
7472;DHT22;3777;48.722;8.110;2023-12-20T01:02:25;7.50;99.90
7472;DHT22;3777;48.722;8.110;2023-12-20T01:04:53;7.60;99.90
7472;DHT22;3777;48.722;8.110;2023-12-20T01:07:20;7.60;99.90
7472;DHT22;3777;48.722;8.110;2023-12-20T01:09:47;7.60;99.90
7472;DHT22;3777;48.722;8.110;2023-12-20T01:12:14;7.60;99.90
7472;DHT22;3777;48.722;8.110;2023-12-20T01:14:41;7.60;99.90
7472;DHT22;3777;48.722;8.110;2023-12-20T01:17:08;7.50;99.90
7472;DHT22;3777;48.722;8.110;2023-12-20T01:19:35;7.50;99.90
7472;DHT22;3777;48.722;8.110;2023-12-20T01:22:04;7.50;99.90
7472;DHT22;3777;48.722;8.110;2023-12-20T01:24:31;7.50;99.90
7472;DHT22;3777;48.722;8.110;2023-12-20T01:26:58;7.50;99.90
7472;DHT22;3777;48.722;8.110;2023-12-20T01:29:25;7.50;99.90
7472;DHT22;3777;48.722;8.110;2023-12-20T01:31:52;7.50;99.90
7472;DHT22;3777;48.722;8.110;2023-12-20T01:34:19;7.40;99.90
7472;DHT22;3777;48.722;8.110;2023-12-20T01:36:46;7.40;99.90
7472;DHT22;3777;48.722;8.110;2023-12-20T01:39:14;7.40;99.90
7472;DHT22;3777;48.722;8.110;2023-12-20T01:41:44;7.30;99.90
7472;DHT22;3777;48.722;8.110;2023-12-20T01:44:11;7.20;99.90
7472;DHT22;3777;48.722;8.110;2023-12-20T01:46:38;7.30;99.90
7472;DHT22;3777;48.722;8.110;2023-12-20T01:49:05;7.30;99.90
7472;DHT22;3777;48.722;8.110;2023-12-20T01:51:33;7.40;99.90
7472;DHT22;3777;48.722;8.110;2023-12-20T01:54:00;7.50;99.90
7472;DHT22;3777;48.722;8.110;2023-12-20T01:56:30;7.40;99.90
7472;DHT22;3777;48.722;8.110;2023-12-20T01:58:58;7.40;99.90
7472;DHT22;3777;48.722;8.110;2023-12-20T02:01:25;7.40;99.90
7472;DHT22;3777;48.722;8.110;2023-12-20T02:03:54;7.40;99.90
7472;DHT22;3777;48.722;8.110;2023-12-20T02:06:22;7.30;99.90
7472;DHT22;3777;48.722;8.110;2023-12-20T02:08:50;7.30;99.90
7472;DHT22;3777;48.722;8.110;2023-12-20T02:11:17;7.20;99.90
7472;DHT22;3777;48.722;8.110;2023-12-20T02:13:45;7.30;99.90
7472;DHT22;3777;48.722;8.110;2023-12-20T02:16:12;7.30;99.90
7472;DHT22;3777;48.722;8.110;2023-12-20T02:18:39;7.30;99.90
7472;DHT22;3777;48.722;8.110;2023-12-20T02:21:06;7.30;99.90
7472;DHT22;3777;48.722;8.110;2023-12-20T02:23:35;7.30;99.90
7472;DHT22;3777;48.722;8.110;2023-12-20T02:26:02;7.20;99.90
7472;DHT22;3777;48.722;8.110;2023-12-20T02:28:30;7.30;99.90
7472;DHT22;3777;48.722;8.110;2023-12-20T02:30:57;7.40;99.90
7472;DHT22;3777;48.722;8.110;2023-12-20T02:33:24;7.50;99.90
7472;DHT22;3777;48.722;8.110;2023-12-20T02:35:51;7.50;99.90
7472;DHT22;3777;48.722;8.110;2023-12-20T02:38:18;7.50;99.90
7472;DHT22;3777;48.722;8.110;2023-12-20T02:40:46;7.60;99.90
7472;DHT22;3777;48.722;8.110;2023-12-20T02:43:13;7.60;99.90
7472;DHT22;3777;48.722;8.110;2023-12-20T02:45:40;7.60;99.90
7472;DHT22;3777;48.722;8.110;2023-12-20T02:48:07;7.50;99.90
7472;DHT22;3777;48.722;8.110;2023-12-20T02:50:34;7.50;99.90
7472;DHT22;3777;48.722;8.110;2023-12-20T02:53:01;7.50;99.90
7472;DHT22;3777;48.722;8.110;2023-12-20T02:55:28;7.50;99.90
7472;DHT22;3777;48.722;8.110;2023-12-20T02:57:56;7.60;99.90
7472;DHT22;3777;48.722;8.110;2023-12-20T03:00:23;7.70;99.90
7472;DHT22;3777;48.722;8.110;2023-12-20T03:02:50;7.80;99.90
7472;DHT22;3777;48.722;8.110;2023-12-20T03:05:17;7.70;99.90
7472;DHT22;3777;48.722;8.110;2023-12-20T03:07:44;7.80;99.90
7472;DHT22;3777;48.722;8.110;2023-12-20T03:10:11;7.80;99.90
7472;DHT22;3777;48.722;8.110;2023-12-20T03:12:38;7.80;99.90
7472;DHT22;3777;48.722;8.110;2023-12-20T03:15:08;7.70;99.90
7472;DHT22;3777;48.722;8.110;2023-12-20T03:17:35;7.70;99.90
7472;DHT22;3777;48.722;8.110;2023-12-20T03:20:03;7.80;99.90
7472;DHT22;3777;48.722;8.110;2023-12-20T03:22:30;7.80;99.90
7472;DHT22;3777;48.722;8.110;2023-12-20T03:24:57;7.80;99.90
7472;DHT22;3777;48.722;8.110;2023-12-20T03:27:24;7.80;99.90
7472;DHT22;3777;48.722;8.110;2023-12-20T03:29:51;7.80;99.90
7472;DHT22;3777;48.722;8.110;2023-12-20T03:32:19;7.80;99.90
7472;DHT22;3777;48.722;8.110;2023-12-20T03:34:46;7.70;99.90
7472;DHT22;3777;48.722;8.110;2023-12-20T03:37:14;7.70;99.90
7472;DHT22;3777;48.722;8.110;2023-12-20T03:39:40;7.60;99.90
7472;DHT22;3777;48.722;8.110;2023-12-20T03:42:07;7.70;99.90
7472;DHT22;3777;48.722;8.110;2023-12-20T03:44:34;7.70;99.90
7472;DHT22;3777;48.722;8.110;2023-12-20T03:47:01;7.70;99.90
7472;DHT22;3777;48.722;8.110;2023-12-20T03:49:30;7.70;99.90
7472;DHT22;3777;48.722;8.110;2023-12-20T03:51:57;7.80;99.90
7472;DHT22;3777;48.722;8.110;2023-12-20T03:54:24;7.80;99.90
7472;DHT22;3777;48.722;8.110;2023-12-20T03:56:51;7.90;99.90
7472;DHT22;3777;48.722;8.110;2023-12-20T03:59:18;8.00;99.90
7472;DHT22;3777;48.722;8.110;2023-12-20T04:01:45;8.00;99.90
7472;DHT22;3777;48.722;8.110;2023-12-20T04:04:13;8.00;99.90
7472;DHT22;3777;48.722;8.110;2023-12-20T04:06:41;8.10;99.90
7472;DHT22;3777;48.722;8.110;2023-12-20T04:09:08;8.00;99.90
7472;DHT22;3777;48.722;8.110;2023-12-20T04:11:36;8.00;99.90
7472;DHT22;3777;48.722;8.110;2023-12-20T04:14:03;7.90;99.90
7472;DHT22;3777;48.722;8.110;2023-12-20T04:16:31;7.90;99.90
7472;DHT22;3777;48.722;8.110;2023-12-20T04:18:58;8.00;99.90
7472;DHT22;3777;48.722;8.110;2023-12-20T04:21:25;8.00;99.90
7472;DHT22;3777;48.722;8.110;2023-12-20T04:23:53;8.10;99.90
7472;DHT22;3777;48.722;8.110;2023-12-20T04:26:20;8.10;99.90
7472;DHT22;3777;48.722;8.110;2023-12-20T04:28:47;8.00;99.90
7472;DHT22;3777;48.722;8.110;2023-12-20T04:31:14;8.00;99.90
7472;DHT22;3777;48.722;8.110;2023-12-20T04:33:41;7.90;99.90
7472;DHT22;3777;48.722;8.110;2023-12-20T04:36:08;7.90;99.90
7472;DHT22;3777;48.722;8.110;2023-12-20T04:38:35;7.80;99.90
7472;DHT22;3777;48.722;8.110;2023-12-20T04:41:04;7.80;99.90
7472;DHT22;3777;48.722;8.110;2023-12-20T04:43:31;7.90;99.90
7472;DHT22;3777;48.722;8.110;2023-12-20T04:45:58;8.00;99.90
7472;DHT22;3777;48.722;8.110;2023-12-20T04:48:25;8.00;99.90
7472;DHT22;3777;48.722;8.110;2023-12-20T04:50:51;8.10;99.90
7472;DHT22;3777;48.722;8.110;2023-12-20T04:53:18;8.10;99.90
7472;DHT22;3777;48.722;8.110;2023-12-20T04:55:45;8.20;99.90
7472;DHT22;3777;48.722;8.110;2023-12-20T04:58:14;8.30;99.90
7472;DHT22;3777;48.722;8.110;2023-12-20T05:00:41;8.30;99.90
7472;DHT22;3777;48.722;8.110;2023-12-20T05:03:07;8.30;99.90
7472;DHT22;3777;48.722;8.110;2023-12-20T05:05:34;8.40;99.90
7472;DHT22;3777;48.722;8.110;2023-12-20T05:08:01;8.40;99.90
7472;DHT22;3777;48.722;8.110;2023-12-20T05:10:29;8.40;99.90
7472;DHT22;3777;48.722;8.110;2023-12-20T05:12:56;8.40;99.90
7472;DHT22;3777;48.722;8.110;2023-12-20T05:15:24;8.50;99.90
7472;DHT22;3777;48.722;8.110;2023-12-20T05:17:51;8.40;99.90
7472;DHT22;3777;48.722;8.110;2023-12-20T05:20:18;8.40;99.90
7472;DHT22;3777;48.722;8.110;2023-12-20T05:22:45;8.40;99.90
7472;DHT22;3777;48.722;8.110;2023-12-20T05:25:13;8.40;99.90
7472;DHT22;3777;48.722;8.110;2023-12-20T05:27:40;8.10;99.90
7472;DHT22;3777;48.722;8.110;2023-12-20T05:30:07;8.20;99.90
7472;DHT22;3777;48.722;8.110;2023-12-20T05:32:36;8.20;99.90
7472;DHT22;3777;48.722;8.110;2023-12-20T05:35:03;8.20;99.90
7472;DHT22;3777;48.722;8.110;2023-12-20T05:37:30;8.10;99.90
7472;DHT22;3777;48.722;8.110;2023-12-20T05:39:57;8.10;99.90
7472;DHT22;3777;48.722;8.110;2023-12-20T05:42:24;8.10;99.90
7472;DHT22;3777;48.722;8.110;2023-12-20T05:44:51;8.10;99.90
7472;DHT22;3777;48.722;8.110;2023-12-20T05:47:18;8.10;99.90
7472;DHT22;3777;48.722;8.110;2023-12-20T05:49:46;8.20;99.90
7472;DHT22;3777;48.722;8.110;2023-12-20T05:52:13;8.20;99.90
7472;DHT22;3777;48.722;8.110;2023-12-20T05:54:40;8.20;99.90
7472;DHT22;3777;48.722;8.110;2023-12-20T05:57:07;8.30;99.90
7472;DHT22;3777;48.722;8.110;2023-12-20T05:59:34;8.30;99.90
7472;DHT22;3777;48.722;8.110;2023-12-20T06:02:02;8.30;99.90
7472;DHT22;3777;48.722;8.110;2023-12-20T06:04:29;8.30;99.90
7472;DHT22;3777;48.722;8.110;2023-12-20T06:06:58;8.20;99.90
7472;DHT22;3777;48.722;8.110;2023-12-20T06:09:26;8.30;99.90
7472;DHT22;3777;48.722;8.110;2023-12-20T06:11:53;8.30;99.90
7472;DHT22;3777;48.722;8.110;2023-12-20T06:14:20;8.20;99.90
7472;DHT22;3777;48.722;8.110;2023-12-20T06:16:47;8.10;99.90
7472;DHT22;3777;48.722;8.110;2023-12-20T06:19:14;8.10;99.90
7472;DHT22;3777;48.722;8.110;2023-12-20T06:21:41;8.10;99.90
7472;DHT22;3777;48.722;8.110;2023-12-20T06:24:09;8.10;99.90
7472;DHT22;3777;48.722;8.110;2023-12-20T06:26:36;8.00;99.90
7472;DHT22;3777;48.722;8.110;2023-12-20T06:29:03;7.80;99.90
7472;DHT22;3777;48.722;8.110;2023-12-20T06:31:30;7.80;99.90
7472;DHT22;3777;48.722;8.110;2023-12-20T06:33:58;7.90;99.90
7472;DHT22;3777;48.722;8.110;2023-12-20T06:36:25;8.00;99.90
7472;DHT22;3777;48.722;8.110;2023-12-20T06:38:53;8.00;99.90
7472;DHT22;3777;48.722;8.110;2023-12-20T06:41:21;7.90;99.90
7472;DHT22;3777;48.722;8.110;2023-12-20T06:43:50;7.90;99.90
7472;DHT22;3777;48.722;8.110;2023-12-20T06:46:17;7.90;99.90
7472;DHT22;3777;48.722;8.110;2023-12-20T06:48:44;8.00;99.90
7472;DHT22;3777;48.722;8.110;2023-12-20T06:51:13;8.10;99.90
7472;DHT22;3777;48.722;8.110;2023-12-20T06:53:40;8.20;99.90
7472;DHT22;3777;48.722;8.110;2023-12-20T06:56:07;8.20;99.90
7472;DHT22;3777;48.722;8.110;2023-12-20T06:58:37;8.30;99.90
7472;DHT22;3777;48.722;8.110;2023-12-20T07:01:04;8.30;99.90
7472;DHT22;3777;48.722;8.110;2023-12-20T07:03:31;8.40;99.90
7472;DHT22;3777;48.722;8.110;2023-12-20T07:05:58;8.40;99.90
7472;DHT22;3777;48.722;8.110;2023-12-20T07:08:25;8.40;99.90
7472;DHT22;3777;48.722;8.110;2023-12-20T07:10:52;8.40;99.90
7472;DHT22;3777;48.722;8.110;2023-12-20T07:13:19;8.40;99.90
7472;DHT22;3777;48.722;8.110;2023-12-20T07:15:47;8.40;99.90
7472;DHT22;3777;48.722;8.110;2023-12-20T07:18:14;8.50;99.90
7472;DHT22;3777;48.722;8.110;2023-12-20T07:20:41;8.50;99.90
7472;DHT22;3777;48.722;8.110;2023-12-20T07:23:08;8.50;99.90
7472;DHT22;3777;48.722;8.110;2023-12-20T07:25:35;8.50;99.90
7472;DHT22;3777;48.722;8.110;2023-12-20T07:28:03;8.40;99.90
7472;DHT22;3777;48.722;8.110;2023-12-20T07:30:30;8.50;99.90
7472;DHT22;3777;48.722;8.110;2023-12-20T07:32:58;8.50;99.90
7472;DHT22;3777;48.722;8.110;2023-12-20T07:35:26;8.50;99.90
7472;DHT22;3777;48.722;8.110;2023-12-20T07:37:53;8.50;99.90
7472;DHT22;3777;48.722;8.110;2023-12-20T07:40:20;8.60;99.90
7472;DHT22;3777;48.722;8.110;2023-12-20T07:42:47;8.60;99.90
7472;DHT22;3777;48.722;8.110;2023-12-20T07:45:14;8.60;99.90
7472;DHT22;3777;48.722;8.110;2023-12-20T07:47:41;8.60;99.90
7472;DHT22;3777;48.722;8.110;2023-12-20T07:50:09;8.60;99.90
7472;DHT22;3777;48.722;8.110;2023-12-20T07:52:36;8.60;99.90
7472;DHT22;3777;48.722;8.110;2023-12-20T07:55:04;8.60;99.90
7472;DHT22;3777;48.722;8.110;2023-12-20T07:57:31;8.50;99.90
7472;DHT22;3777;48.722;8.110;2023-12-20T07:59:58;8.50;99.90
7472;DHT22;3777;48.722;8.110;2023-12-20T08:02:25;8.40;99.90
7472;DHT22;3777;48.722;8.110;2023-12-20T08:04:52;8.40;99.90
7472;DHT22;3777;48.722;8.110;2023-12-20T08:07:20;8.40;99.90
7472;DHT22;3777;48.722;8.110;2023-12-20T08:09:47;8.40;99.90
7472;DHT22;3777;48.722;8.110;2023-12-20T08:12:14;8.30;99.90
7472;DHT22;3777;48.722;8.110;2023-12-20T08:14:44;8.30;99.90
7472;DHT22;3777;48.722;8.110;2023-12-20T08:17:11;8.20;99.90
7472;DHT22;3777;48.722;8.110;2023-12-20T08:19:38;8.20;99.90
7472;DHT22;3777;48.722;8.110;2023-12-20T08:22:05;8.00;99.90
7472;DHT22;3777;48.722;8.110;2023-12-20T08:24:34;7.90;99.90
7472;DHT22;3777;48.722;8.110;2023-12-20T08:27:00;7.90;99.90
7472;DHT22;3777;48.722;8.110;2023-12-20T08:29:27;7.80;99.90
7472;DHT22;3777;48.722;8.110;2023-12-20T08:31:55;7.80;99.90
7472;DHT22;3777;48.722;8.110;2023-12-20T08:34:22;7.70;99.90
7472;DHT22;3777;48.722;8.110;2023-12-20T08:36:50;7.60;99.90
7472;DHT22;3777;48.722;8.110;2023-12-20T08:39:17;7.50;99.90
7472;DHT22;3777;48.722;8.110;2023-12-20T08:41:46;7.50;99.90
7472;DHT22;3777;48.722;8.110;2023-12-20T08:44:13;7.50;99.90
7472;DHT22;3777;48.722;8.110;2023-12-20T08:46:40;7.60;99.90
7472;DHT22;3777;48.722;8.110;2023-12-20T08:49:07;7.80;99.90
7472;DHT22;3777;48.722;8.110;2023-12-20T08:51:35;7.90;99.90
7472;DHT22;3777;48.722;8.110;2023-12-20T08:54:05;8.00;99.90
7472;DHT22;3777;48.722;8.110;2023-12-20T08:56:33;8.10;99.90
7472;DHT22;3777;48.722;8.110;2023-12-20T08:59:02;8.30;99.90
7472;DHT22;3777;48.722;8.110;2023-12-20T09:01:29;8.40;99.90
7472;DHT22;3777;48.722;8.110;2023-12-20T09:03:56;8.50;99.90
7472;DHT22;3777;48.722;8.110;2023-12-20T09:06:22;8.70;99.90
7472;DHT22;3777;48.722;8.110;2023-12-20T09:08:51;8.90;99.90
7472;DHT22;3777;48.722;8.110;2023-12-20T09:11:18;9.00;99.90
7472;DHT22;3777;48.722;8.110;2023-12-20T09:13:44;9.00;99.90
7472;DHT22;3777;48.722;8.110;2023-12-20T09:16:13;9.10;99.90
7472;DHT22;3777;48.722;8.110;2023-12-20T09:18:41;9.20;99.90
7472;DHT22;3777;48.722;8.110;2023-12-20T09:21:08;9.20;99.90
7472;DHT22;3777;48.722;8.110;2023-12-20T09:23:35;9.30;99.90
7472;DHT22;3777;48.722;8.110;2023-12-20T09:26:03;9.20;99.90
7472;DHT22;3777;48.722;8.110;2023-12-20T09:28:30;9.20;99.90
7472;DHT22;3777;48.722;8.110;2023-12-20T09:31:03;9.20;99.90
7472;DHT22;3777;48.722;8.110;2023-12-20T09:33:32;9.30;99.90
7472;DHT22;3777;48.722;8.110;2023-12-20T09:35:59;9.30;99.90
7472;DHT22;3777;48.722;8.110;2023-12-20T09:38:26;9.30;99.90
7472;DHT22;3777;48.722;8.110;2023-12-20T09:40:54;9.30;99.90
7472;DHT22;3777;48.722;8.110;2023-12-20T09:43:23;9.20;99.90
7472;DHT22;3777;48.722;8.110;2023-12-20T09:45:53;9.20;99.90
7472;DHT22;3777;48.722;8.110;2023-12-20T09:48:20;9.10;99.90
7472;DHT22;3777;48.722;8.110;2023-12-20T09:50:49;9.10;99.90
7472;DHT22;3777;48.722;8.110;2023-12-20T09:53:16;9.10;99.90
7472;DHT22;3777;48.722;8.110;2023-12-20T09:55:44;9.10;99.90
7472;DHT22;3777;48.722;8.110;2023-12-20T09:58:11;9.20;99.90
7472;DHT22;3777;48.722;8.110;2023-12-20T10:00:38;9.40;99.90
7472;DHT22;3777;48.722;8.110;2023-12-20T10:03:06;9.40;99.90
7472;DHT22;3777;48.722;8.110;2023-12-20T10:05:34;9.50;99.90
7472;DHT22;3777;48.722;8.110;2023-12-20T10:08:03;9.50;99.90
7472;DHT22;3777;48.722;8.110;2023-12-20T10:10:30;9.50;99.90
7472;DHT22;3777;48.722;8.110;2023-12-20T10:13:04;9.30;99.90
7472;DHT22;3777;48.722;8.110;2023-12-20T10:15:32;9.30;99.90
7472;DHT22;3777;48.722;8.110;2023-12-20T10:17:59;9.40;99.90
7472;DHT22;3777;48.722;8.110;2023-12-20T10:20:27;9.40;99.90
7472;DHT22;3777;48.722;8.110;2023-12-20T10:22:55;9.40;99.90
7472;DHT22;3777;48.722;8.110;2023-12-20T10:25:23;9.40;99.90
7472;DHT22;3777;48.722;8.110;2023-12-20T10:30:34;9.10;99.90
7472;DHT22;3777;48.722;8.110;2023-12-20T10:33:01;9.20;99.90
7472;DHT22;3777;48.722;8.110;2023-12-20T10:35:28;9.30;99.90
7472;DHT22;3777;48.722;8.110;2023-12-20T10:37:56;9.30;99.90
7472;DHT22;3777;48.722;8.110;2023-12-20T10:40:25;9.30;99.90
7472;DHT22;3777;48.722;8.110;2023-12-20T10:42:56;9.30;99.90
7472;DHT22;3777;48.722;8.110;2023-12-20T10:45:25;9.30;99.90
7472;DHT22;3777;48.722;8.110;2023-12-20T10:47:52;9.30;99.90
7472;DHT22;3777;48.722;8.110;2023-12-20T10:50:20;9.40;99.90
7472;DHT22;3777;48.722;8.110;2023-12-20T10:52:47;9.30;99.90
7472;DHT22;3777;48.722;8.110;2023-12-20T10:55:14;9.00;99.90
7472;DHT22;3777;48.722;8.110;2023-12-20T10:57:43;8.90;99.90
7472;DHT22;3777;48.722;8.110;2023-12-20T11:00:17;8.60;99.90
7472;DHT22;3777;48.722;8.110;2023-12-20T11:02:45;8.60;99.90
7472;DHT22;3777;48.722;8.110;2023-12-20T11:05:22;8.70;99.90
7472;DHT22;3777;48.722;8.110;2023-12-20T11:07:52;8.60;99.90
7472;DHT22;3777;48.722;8.110;2023-12-20T11:10:25;8.60;99.90
7472;DHT22;3777;48.722;8.110;2023-12-20T11:12:57;8.70;99.90
7472;DHT22;3777;48.722;8.110;2023-12-20T11:15:25;8.80;99.90
7472;DHT22;3777;48.722;8.110;2023-12-20T11:17:55;8.90;99.90
7472;DHT22;3777;48.722;8.110;2023-12-20T11:20:23;8.90;99.90
7472;DHT22;3777;48.722;8.110;2023-12-20T11:22:54;8.90;99.90
7472;DHT22;3777;48.722;8.110;2023-12-20T11:25:21;9.00;99.90
7472;DHT22;3777;48.722;8.110;2023-12-20T11:28:09;8.90;99.90
7472;DHT22;3777;48.722;8.110;2023-12-20T11:30:46;8.80;99.90
7472;DHT22;3777;48.722;8.110;2023-12-20T11:33:14;8.90;99.90
7472;DHT22;3777;48.722;8.110;2023-12-20T11:35:41;9.10;99.90
7472;DHT22;3777;48.722;8.110;2023-12-20T11:38:08;9.30;99.90
7472;DHT22;3777;48.722;8.110;2023-12-20T11:40:36;9.40;99.90
7472;DHT22;3777;48.722;8.110;2023-12-20T11:43:04;9.50;99.90
7472;DHT22;3777;48.722;8.110;2023-12-20T11:45:32;9.60;99.90
7472;DHT22;3777;48.722;8.110;2023-12-20T11:48:01;9.40;99.90
7472;DHT22;3777;48.722;8.110;2023-12-20T11:50:29;9.60;99.90
7472;DHT22;3777;48.722;8.110;2023-12-20T11:52:56;9.60;99.90
7472;DHT22;3777;48.722;8.110;2023-12-20T11:55:24;9.50;99.90
7472;DHT22;3777;48.722;8.110;2023-12-20T11:57:51;9.50;99.90
7472;DHT22;3777;48.722;8.110;2023-12-20T12:00:18;9.60;99.90
7472;DHT22;3777;48.722;8.110;2023-12-20T12:02:57;9.50;99.90
7472;DHT22;3777;48.722;8.110;2023-12-20T12:05:24;9.50;99.90
7472;DHT22;3777;48.722;8.110;2023-12-20T12:07:51;9.40;99.90
7472;DHT22;3777;48.722;8.110;2023-12-20T12:10:19;9.30;99.90
7472;DHT22;3777;48.722;8.110;2023-12-20T12:12:46;9.20;99.90
7472;DHT22;3777;48.722;8.110;2023-12-20T12:15:14;9.20;99.90
7472;DHT22;3777;48.722;8.110;2023-12-20T12:17:41;9.10;99.90
7472;DHT22;3777;48.722;8.110;2023-12-20T12:20:10;8.90;99.90
7472;DHT22;3777;48.722;8.110;2023-12-20T12:22:38;8.70;99.90
7472;DHT22;3777;48.722;8.110;2023-12-20T12:25:12;8.90;99.90
7472;DHT22;3777;48.722;8.110;2023-12-20T12:27:40;9.00;99.90
7472;DHT22;3777;48.722;8.110;2023-12-20T12:30:09;9.20;99.90
7472;DHT22;3777;48.722;8.110;2023-12-20T12:32:38;9.30;99.90
7472;DHT22;3777;48.722;8.110;2023-12-20T12:35:07;9.30;99.90
7472;DHT22;3777;48.722;8.110;2023-12-20T12:37:38;9.50;99.90
7472;DHT22;3777;48.722;8.110;2023-12-20T12:40:09;9.60;99.90
7472;DHT22;3777;48.722;8.110;2023-12-20T12:42:36;9.60;99.90
7472;DHT22;3777;48.722;8.110;2023-12-20T12:45:04;9.50;99.90
7472;DHT22;3777;48.722;8.110;2023-12-20T12:47:31;9.40;99.90
7472;DHT22;3777;48.722;8.110;2023-12-20T12:49:58;9.50;99.90
7472;DHT22;3777;48.722;8.110;2023-12-20T12:52:25;9.50;99.90
7472;DHT22;3777;48.722;8.110;2023-12-20T12:54:54;9.60;99.90
7472;DHT22;3777;48.722;8.110;2023-12-20T12:57:21;9.60;99.90
7472;DHT22;3777;48.722;8.110;2023-12-20T12:59:48;9.50;99.90
7472;DHT22;3777;48.722;8.110;2023-12-20T13:02:16;9.60;99.90
7472;DHT22;3777;48.722;8.110;2023-12-20T13:04:43;9.50;99.90
7472;DHT22;3777;48.722;8.110;2023-12-20T13:07:10;9.50;99.90
7472;DHT22;3777;48.722;8.110;2023-12-20T13:09:37;9.50;99.90
7472;DHT22;3777;48.722;8.110;2023-12-20T13:12:06;9.50;99.90
7472;DHT22;3777;48.722;8.110;2023-12-20T13:14:34;9.40;99.90
7472;DHT22;3777;48.722;8.110;2023-12-20T13:17:02;9.30;99.90
7472;DHT22;3777;48.722;8.110;2023-12-20T13:19:30;9.20;99.90
7472;DHT22;3777;48.722;8.110;2023-12-20T13:21:57;9.20;99.90
7472;DHT22;3777;48.722;8.110;2023-12-20T13:24:24;9.20;99.90
7472;DHT22;3777;48.722;8.110;2023-12-20T13:26:51;9.20;99.90
7472;DHT22;3777;48.722;8.110;2023-12-20T13:29:20;9.20;99.90
7472;DHT22;3777;48.722;8.110;2023-12-20T13:31:47;9.20;99.90
7472;DHT22;3777;48.722;8.110;2023-12-20T13:34:14;9.20;99.90
7472;DHT22;3777;48.722;8.110;2023-12-20T13:36:43;9.00;99.90
7472;DHT22;3777;48.722;8.110;2023-12-20T13:39:13;9.00;99.90
7472;DHT22;3777;48.722;8.110;2023-12-20T13:41:40;9.00;99.90
7472;DHT22;3777;48.722;8.110;2023-12-20T13:44:07;9.10;99.90
7472;DHT22;3777;48.722;8.110;2023-12-20T13:46:36;9.10;99.90
7472;DHT22;3777;48.722;8.110;2023-12-20T13:49:03;9.10;99.90
7472;DHT22;3777;48.722;8.110;2023-12-20T13:51:30;9.20;99.90
7472;DHT22;3777;48.722;8.110;2023-12-20T13:53:57;9.20;99.90
7472;DHT22;3777;48.722;8.110;2023-12-20T13:56:25;9.20;99.90
7472;DHT22;3777;48.722;8.110;2023-12-20T13:58:52;9.20;99.90
7472;DHT22;3777;48.722;8.110;2023-12-20T14:01:19;9.20;99.90
7472;DHT22;3777;48.722;8.110;2023-12-20T14:03:47;9.20;99.90
7472;DHT22;3777;48.722;8.110;2023-12-20T14:06:14;9.10;99.90
7472;DHT22;3777;48.722;8.110;2023-12-20T14:08:42;9.10;99.90
7472;DHT22;3777;48.722;8.110;2023-12-20T14:11:09;9.10;99.90
7472;DHT22;3777;48.722;8.110;2023-12-20T14:13:36;9.10;99.90
7472;DHT22;3777;48.722;8.110;2023-12-20T14:16:03;9.10;99.90
7472;DHT22;3777;48.722;8.110;2023-12-20T14:18:30;9.00;99.90
7472;DHT22;3777;48.722;8.110;2023-12-20T14:20:59;8.90;99.90
7472;DHT22;3777;48.722;8.110;2023-12-20T14:23:26;8.80;99.90
7472;DHT22;3777;48.722;8.110;2023-12-20T14:25:53;8.70;99.90
7472;DHT22;3777;48.722;8.110;2023-12-20T14:28:21;8.50;99.90
7472;DHT22;3777;48.722;8.110;2023-12-20T14:30:48;8.50;99.90
7472;DHT22;3777;48.722;8.110;2023-12-20T14:33:15;8.50;99.90
7472;DHT22;3777;48.722;8.110;2023-12-20T14:35:42;8.50;99.90
7472;DHT22;3777;48.722;8.110;2023-12-20T14:38:11;8.40;99.90
7472;DHT22;3777;48.722;8.110;2023-12-20T14:40:39;8.40;99.90
7472;DHT22;3777;48.722;8.110;2023-12-20T14:43:06;8.30;99.90
7472;DHT22;3777;48.722;8.110;2023-12-20T14:45:33;8.30;99.90
7472;DHT22;3777;48.722;8.110;2023-12-20T14:48:00;8.20;99.90
7472;DHT22;3777;48.722;8.110;2023-12-20T14:50:27;8.20;99.90
7472;DHT22;3777;48.722;8.110;2023-12-20T14:52:54;8.10;99.90
7472;DHT22;3777;48.722;8.110;2023-12-20T14:55:22;8.00;99.90
7472;DHT22;3777;48.722;8.110;2023-12-20T14:57:52;8.10;99.90
7472;DHT22;3777;48.722;8.110;2023-12-20T15:00:19;8.00;99.90
7472;DHT22;3777;48.722;8.110;2023-12-20T15:02:46;8.00;99.90
7472;DHT22;3777;48.722;8.110;2023-12-20T15:05:13;8.00;99.90
7472;DHT22;3777;48.722;8.110;2023-12-20T15:07:41;8.10;99.90
7472;DHT22;3777;48.722;8.110;2023-12-20T15:10:08;8.20;99.90
7472;DHT22;3777;48.722;8.110;2023-12-20T15:12:37;8.20;99.90
7472;DHT22;3777;48.722;8.110;2023-12-20T15:15:04;8.20;99.90
7472;DHT22;3777;48.722;8.110;2023-12-20T15:17:31;8.20;99.90
7472;DHT22;3777;48.722;8.110;2023-12-20T15:19:59;8.20;99.90
7472;DHT22;3777;48.722;8.110;2023-12-20T15:22:26;8.10;99.90
7472;DHT22;3777;48.722;8.110;2023-12-20T15:24:53;7.80;99.90
7472;DHT22;3777;48.722;8.110;2023-12-20T15:27:20;7.70;99.90
7472;DHT22;3777;48.722;8.110;2023-12-20T15:29:49;7.60;99.90
7472;DHT22;3777;48.722;8.110;2023-12-20T15:32:17;7.40;99.90
7472;DHT22;3777;48.722;8.110;2023-12-20T15:34:45;7.30;99.90
7472;DHT22;3777;48.722;8.110;2023-12-20T15:37:12;7.20;99.90
7472;DHT22;3777;48.722;8.110;2023-12-20T15:39:41;6.90;99.90
7472;DHT22;3777;48.722;8.110;2023-12-20T15:42:08;6.80;99.90
7472;DHT22;3777;48.722;8.110;2023-12-20T15:44:35;6.90;99.90
7472;DHT22;3777;48.722;8.110;2023-12-20T15:47:04;6.90;99.90
7472;DHT22;3777;48.722;8.110;2023-12-20T15:49:31;6.90;99.90
7472;DHT22;3777;48.722;8.110;2023-12-20T15:51:57;6.90;99.90
7472;DHT22;3777;48.722;8.110;2023-12-20T15:54:24;6.70;99.90
7472;DHT22;3777;48.722;8.110;2023-12-20T15:56:51;6.80;99.90
7472;DHT22;3777;48.722;8.110;2023-12-20T15:59:18;6.80;99.90
7472;DHT22;3777;48.722;8.110;2023-12-20T16:01:45;6.80;99.90
7472;DHT22;3777;48.722;8.110;2023-12-20T16:04:14;6.80;99.90
7472;DHT22;3777;48.722;8.110;2023-12-20T16:06:41;6.80;99.90
7472;DHT22;3777;48.722;8.110;2023-12-20T16:09:08;6.80;99.90
7472;DHT22;3777;48.722;8.110;2023-12-20T16:11:35;6.80;99.90
7472;DHT22;3777;48.722;8.110;2023-12-20T16:14:02;6.80;99.90
7472;DHT22;3777;48.722;8.110;2023-12-20T16:16:29;6.70;99.90
7472;DHT22;3777;48.722;8.110;2023-12-20T16:18:55;6.70;99.90
7472;DHT22;3777;48.722;8.110;2023-12-20T16:21:24;6.70;99.90